Time,TemperatureF,DewpointF,PressureIn,WindDirection,WindDirectionDegrees,WindSpeedMPH,WindSpeedGustMPH,Humidity,HourlyPrecipIn,Conditions,Clouds,dailyrainin,SoftwareType,DateUTC
2013-03-03 00:00:00,27.0,21.0,-100.00,North,-999,-999.0,-999.0,79,0.00,,,-99.99,,2013-03-03 08:00:00,
2013-03-03 00:54:00,27.0,21.0,-100.00,North,-999,-999.0,-999.0,79,0.00,,,-99.99,,2013-03-03 08:54:00,
2013-03-03 01:00:00,26.0,8.0,-100.00,North,-999,-999.0,-999.0,46,0.00,,,-99.99,,2013-03-03 09:00:00,
2013-03-03 01:52:00,26.0,8.0,-100.00,North,-999,-999.0,-999.0,46,0.00,,,-99.99,,2013-03-03 09:52:00,
2013-03-03 02:00:00,23.0,16.0,-100.00,North,-999,-999.0,-999.0,73,0.00,,,-99.99,,2013-03-03 10:00:00,
2013-03-03 02:52:00,23.0,16.0,-100.00,North,-999,-999.0,-999.0,73,0.00,,,-99.99,,2013-03-03 10:52:00,
2013-03-03 03:00:00,22.0,-4.0,-100.00,North,-999,-999.0,-999.0,31,0.00,,,-99.99,,2013-03-03 11:00:00,
2013-03-03 03:52:00,22.0,-4.0,-100.00,North,-999,-999.0,-999.0,31,0.00,,,-99.99,,2013-03-03 11:52:00,
2013-03-03 04:00:00,21.0,7.0,-100.00,North,-999,-999.0,-999.0,53,0.00,,,-99.99,,2013-03-03 12:00:00,
2013-03-03 05:00:00,19.0,10.0,-100.00,North,-999,-999.0,-999.0,67,0.00,,,-99.99,,2013-03-03 13:00:00,
2013-03-03 06:00:00,17.0,10.0,-100.00,North,-999,-999.0,-999.0,73,0.00,,,-99.99,,2013-03-03 14:00:00,
2013-03-03 07:00:00,16.0,9.0,-100.00,North,-999,-999.0,-999.0,75,0.00,,,-99.99,,2013-03-03 15:00:00,
2013-03-03 08:00:00,19.0,16.0,-100.00,North,-999,-999.0,-999.0,88,0.00,,,-99.99,,2013-03-03 16:00:00,
2013-03-03 09:00:00,22.0,18.0,-100.00,North,-999,-999.0,-999.0,85,0.00,,,-99.99,,2013-03-03 17:00:00,
2013-03-03 10:00:00,25.0,20.0,-100.00,North,-999,-999.0,-999.0,82,0.00,,,-99.99,,2013-03-03 18:00:00,
2013-03-03 11:00:00,27.0,20.0,-100.00,North,-999,-999.0,-999.0,73,0.00,,,-99.99,,2013-03-03 19:00:00,
2013-03-03 12:00:00,27.0,18.0,-100.00,North,-999,-999.0,-999.0,69,0.00,,,-99.99,,2013-03-03 20:00:00,
2013-03-03 13:00:00,29.0,20.0,-100.00,North,-999,-999.0,-999.0,70,0.00,,,-99.99,,2013-03-03 21:00:00,
2013-03-03 13:52:00,29.0,20.0,-100.00,North,-999,-999.0,-999.0,70,0.00,,,-99.99,,2013-03-03 21:52:00,
2013-03-03 14:00:00,31.0,20.0,-100.00,North,-999,-999.0,-999.0,62,0.00,,,-99.99,,2013-03-03 22:00:00,
2013-03-03 15:00:00,30.0,17.0,-100.00,North,-999,-999.0,-999.0,57,0.00,,,-99.99,,2013-03-03 23:00:00,
2013-03-03 16:00:00,28.0,19.0,-100.00,North,-999,-999.0,-999.0,68,0.00,,,-99.99,,2013-03-04 00:00:00,
2013-03-03 17:00:00,26.0,14.0,-100.00,North,-999,-999.0,-999.0,61,0.00,,,-99.99,,2013-03-04 01:00:00,
2013-03-03 17:52:00,26.0,14.0,-100.00,North,-999,-999.0,-999.0,61,0.00,,,-99.99,,2013-03-04 01:52:00,
2013-03-03 18:00:00,24.0,16.0,-100.00,North,-999,-999.0,-999.0,71,0.00,,,-99.99,,2013-03-04 02:00:00,
2013-03-03 18:52:00,24.0,16.0,-100.00,North,-999,-999.0,-999.0,71,0.00,,,-99.99,,2013-03-04 02:52:00,
2013-03-03 19:00:00,21.0,7.0,-100.00,North,-999,-999.0,-999.0,55,0.00,,,-99.99,,2013-03-04 03:00:00,
2013-03-03 19:52:00,21.0,7.0,-100.00,North,-999,-999.0,-999.0,55,0.00,,,-99.99,,2013-03-04 03:52:00,
2013-03-03 20:00:00,19.0,6.0,-100.00,North,-999,-999.0,-999.0,57,0.00,,,-99.99,,2013-03-04 04:00:00,
2013-03-03 20:52:00,19.0,6.0,-100.00,North,-999,-999.0,-999.0,57,0.00,,,-99.99,,2013-03-04 04:52:00,
2013-03-03 21:00:00,18.0,5.0,-100.00,North,-999,-999.0,-999.0,55,0.00,,,-99.99,,2013-03-04 05:00:00,
2013-03-03 22:00:00,17.0,2.0,-100.00,North,-999,-999.0,-999.0,52,0.00,,,-99.99,,2013-03-04 06:00:00,
2013-03-03 23:00:00,18.0,0.0,-100.00,North,-999,-999.0,-999.0,45,0.00,,,-99.99,,2013-03-04 07:00:00,
2013-03-03 23:52:00,18.0,0.0,-100.00,North,-999,-999.0,-999.0,45,0.00,,,-99.99,,2013-03-04 07:52:00,